Time;durP1;ratioP1;P1;durP2;ratioP2;P2;SDS_P1;SDS_P2;PMS_P1;PMS_P2;Temp;Humidity;BMP_temperature;BMP_pressure;BME280_temperature;BME280_humidity;BME280_pressure;Samples;Min_cycle;Max_cycle;Signal;HPM_P1;HPM_P2
2022/01/16 00:04:24;;;;;;;129.43;49.60;;;3.90;99.90;;;;;;6216051;23;20170;-81
2022/01/16 00:06:51;;;;;;;149.37;53.63;;;3.90;99.90;;;;;;6214948;23;20644;-84
2022/01/16 00:09:19;;;;;;;151.20;55.00;;;3.90;99.90;;;;;;6214515;23;20170;-84
2022/01/16 00:11:45;;;;;;;143.10;51.00;;;3.90;99.90;;;;;;6212155;23;20209;-84
2022/01/16 00:14:12;;;;;;;148.83;54.50;;;3.90;99.90;;;;;;6211500;23;20173;-84
2022/01/16 00:16:40;;;;;;;143.13;52.87;;;4.00;99.90;;;;;;6211204;23;20189;-83
2022/01/16 00:19:07;;;;;;;141.73;54.57;;;4.00;99.90;;;;;;6211176;23;20822;-84
2022/01/16 00:21:40;;;;;;;137.73;50.80;;;4.00;99.90;;;;;;6211647;23;20189;-84
2022/01/16 00:24:07;;;;;;;134.30;52.20;;;4.00;99.90;;;;;;6211720;23;20205;-82
2022/01/16 00:26:35;;;;;;;125.37;47.50;;;4.00;99.90;;;;;;6212281;23;20207;-84
2022/01/16 00:29:03;;;;;;;142.47;50.53;;;4.10;99.90;;;;;;6210406;23;20723;-84
2022/01/16 00:31:30;;;;;;;128.33;52.17;;;4.10;99.90;;;;;;6210357;23;20177;-82
2022/01/16 00:33:57;;;;;;;145.73;55.57;;;4.10;99.90;;;;;;6210895;23;20169;-84
2022/01/16 00:36:24;;;;;;;134.70;50.90;;;4.20;99.90;;;;;;6210640;23;20822;-85
2022/01/16 00:38:56;;;;;;;125.80;52.67;;;4.20;99.90;;;;;;6209900;23;20178;-84
2022/01/16 00:41:23;;;;;;;125.13;51.20;;;4.20;99.90;;;;;;6210754;23;20201;-85
2022/01/16 00:43:50;;;;;;;118.27;48.17;;;4.30;99.90;;;;;;6209554;23;20190;-84
2022/01/16 00:46:18;;;;;;;127.47;49.73;;;4.30;99.90;;;;;;6211164;23;20178;-84
2022/01/16 00:48:45;;;;;;;124.63;48.97;;;4.30;99.90;;;;;;6210377;23;20178;-84
2022/01/16 00:51:12;;;;;;;116.40;50.97;;;4.40;99.90;;;;;;6209228;23;20181;-83
2022/01/16 00:53:42;;;;;;;121.83;51.43;;;4.40;99.90;;;;;;6210795;23;20183;-83
2022/01/16 00:56:10;;;;;;;122.53;50.73;;;4.40;99.90;;;;;;6209585;23;20864;-83
2022/01/16 00:58:37;;;;;;;128.23;54.70;;;4.50;99.90;;;;;;6209261;23;20230;-84
2022/01/16 01:01:04;;;;;;;117.70;51.90;;;4.50;99.90;;;;;;6209283;23;20200;-83
2022/01/16 01:03:32;;;;;;;126.93;50.67;;;4.50;99.90;;;;;;6209263;23;20178;-83
2022/01/16 01:05:58;;;;;;;111.27;46.93;;;4.50;99.90;;;;;;6209414;23;20196;-82
2022/01/16 01:08:28;;;;;;;121.57;50.03;;;4.50;99.90;;;;;;6209326;23;20162;-82
2022/01/16 01:10:55;;;;;;;122.33;48.50;;;4.50;99.90;;;;;;6210286;23;20313;-85
2022/01/16 01:13:31;;;;;;;120.67;50.17;;;4.60;99.90;;;;;;6208401;23;20615;-83
2022/01/16 01:16:02;;;;;;;110.93;47.53;;;4.60;99.90;;;;;;6209004;23;20586;-82
2022/01/16 01:18:30;;;;;;;113.80;48.57;;;4.60;99.90;;;;;;6208856;23;20189;-82
2022/01/16 01:20:58;;;;;;;122.10;49.63;;;4.70;99.90;;;;;;6209179;23;20198;-82
2022/01/16 01:23:25;;;;;;;106.47;48.20;;;4.70;99.90;;;;;;6209303;23;20174;-84
2022/01/16 01:25:52;;;;;;;112.03;48.93;;;4.70;99.90;;;;;;6208237;23;20174;-84
2022/01/16 01:28:19;;;;;;;121.70;51.07;;;4.70;99.90;;;;;;6210001;23;20196;-83
2022/01/16 01:30:47;;;;;;;113.73;48.67;;;4.80;99.90;;;;;;6209198;23;20246;-82
2022/01/16 01:33:15;;;;;;;112.57;52.30;;;4.80;99.90;;;;;;6205335;23;20166;-84
2022/01/16 01:35:42;;;;;;;119.23;49.53;;;4.80;99.90;;;;;;6208180;23;20182;-83
2022/01/16 01:38:11;;;;;;;114.53;50.77;;;4.80;99.90;;;;;;6206616;23;20166;-82
2022/01/16 01:40:40;;;;;;;114.87;49.53;;;4.90;99.90;;;;;;6208950;23;20228;-83
2022/01/16 01:51:23;;;;;;;59.43;35.20;;;5.00;99.90;;;;;;6209877;23;20269;-82
2022/01/16 01:53:51;;;;;;;57.17;33.47;;;5.10;99.90;;;;;;6210032;23;20181;-83
2022/01/16 01:56:21;;;;;;;61.87;33.30;;;5.20;99.90;;;;;;6208782;23;20232;-84
2022/01/16 01:58:48;;;;;;;51.63;32.77;;;5.30;99.90;;;;;;6210138;23;20578;-83
2022/01/16 02:01:16;;;;;;;53.77;31.83;;;5.40;99.90;;;;;;6209564;23;20453;-83
2022/01/16 02:03:43;;;;;;;47.67;31.20;;;5.40;99.90;;;;;;6209869;23;20610;-83
2022/01/16 02:06:13;;;;;;;49.87;31.00;;;5.50;99.90;;;;;;6210119;23;20174;-83
2022/01/16 02:08:41;;;;;;;53.27;31.83;;;5.60;99.90;;;;;;6209558;23;20181;-84
2022/01/16 02:11:08;;;;;;;52.10;32.53;;;5.70;99.90;;;;;;6210019;23;20596;-83
2022/01/16 02:13:46;;;;;;;56.23;33.53;;;5.70;99.90;;;;;;6210374;23;20204;-83
2022/01/16 02:33:10;;;;;;;46.27;31.60;;;6.00;99.90;;;;;;6210055;23;20485;-84
2022/01/16 02:35:36;;;;;;;47.73;27.93;;;6.00;99.90;;;;;;6209749;23;20180;-82
2022/01/16 02:38:05;;;;;;;42.30;25.20;;;6.10;99.90;;;;;;6209337;23;20205;-83
2022/01/16 02:40:36;;;;;;;42.33;26.40;;;6.10;99.90;;;;;;6209081;23;20240;-83
2022/01/16 02:43:03;;;;;;;39.57;23.73;;;6.20;99.90;;;;;;6210413;23;20502;-83
2022/01/16 02:45:31;;;;;;;38.80;25.70;;;6.20;99.90;;;;;;6209220;23;20193;-83
2022/01/16 02:48:01;;;;;;;36.80;22.57;;;6.20;99.90;;;;;;6209277;23;20484;-83
2022/01/16 02:50:30;;;;;;;34.03;23.60;;;6.20;99.90;;;;;;6209827;23;20179;-83
2022/01/16 02:52:56;;;;;;;30.23;20.63;;;6.20;99.90;;;;;;6209428;23;20190;-83
2022/01/16 02:55:24;;;;;;;34.00;22.07;;;6.20;99.90;;;;;;6209002;23;20858;-83
2022/01/16 02:57:54;;;;;;;40.30;21.17;;;6.30;99.90;;;;;;6209071;23;20603;-84
2022/01/16 03:00:23;;;;;;;26.47;18.93;;;6.40;99.90;;;;;;6205499;23;20234;-83
2022/01/16 03:02:50;;;;;;;31.17;18.50;;;6.50;99.90;;;;;;6207814;23;20178;-82
2022/01/16 03:05:17;;;;;;;26.53;18.67;;;6.50;99.90;;;;;;6208967;23;20755;-83
2022/01/16 03:07:45;;;;;;;28.97;17.67;;;6.50;99.90;;;;;;6208658;23;20174;-84
2022/01/16 03:10:41;;;;;;;30.03;19.63;;;6.60;99.90;;;;;;6210390;23;20460;-84
2022/01/16 03:13:10;;;;;;;31.90;18.70;;;6.70;99.90;;;;;;6207606;23;20273;-83
2022/01/16 03:15:38;;;;;;;30.97;18.57;;;6.70;99.90;;;;;;6209203;23;20691;-84
2022/01/16 03:23:35;;;;;;;28.67;17.60;;;6.70;99.90;;;;;;6211467;23;20192;-83
2022/01/16 03:26:02;;;;;;;28.10;17.67;;;6.70;99.90;;;;;;6210316;23;20178;-82
2022/01/16 03:28:30;;;;;;;25.80;16.63;;;6.70;99.90;;;;;;6211145;23;20622;-83
2022/01/16 03:30:57;;;;;;;22.97;16.53;;;6.80;99.90;;;;;;6211649;23;20170;-85
2022/01/16 03:33:24;;;;;;;25.03;15.97;;;6.80;99.90;;;;;;6210315;23;20181;-83
2022/01/16 03:35:52;;;;;;;24.90;15.27;;;6.80;99.90;;;;;;6209858;23;20550;-84
2022/01/16 03:38:19;;;;;;;29.13;15.13;;;6.80;99.90;;;;;;6210457;23;20193;-83
2022/01/16 03:40:46;;;;;;;27.23;14.53;;;6.90;99.90;;;;;;6209965;23;20200;-84
2022/01/16 03:43:14;;;;;;;24.60;15.13;;;6.90;99.90;;;;;;6210304;23;20171;-82
2022/01/16 03:45:46;;;;;;;28.97;15.27;;;7.00;99.90;;;;;;6210344;23;20530;-83
2022/01/16 03:48:13;;;;;;;27.37;14.40;;;7.00;99.90;;;;;;6210849;23;20189;-82
2022/01/16 03:50:40;;;;;;;20.87;13.53;;;7.00;99.90;;;;;;6210426;23;20528;-83
2022/01/16 03:53:07;;;;;;;28.80;14.70;;;7.00;99.90;;;;;;6210758;23;20190;-83
2022/01/16 03:55:35;;;;;;;29.67;15.67;;;7.00;99.90;;;;;;6209424;23;20166;-83
2022/01/16 03:58:02;;;;;;;26.20;15.27;;;7.10;99.90;;;;;;6210237;23;20185;-81
2022/01/16 04:00:29;;;;;;;23.93;15.07;;;7.10;99.90;;;;;;6210887;23;20170;-83
2022/01/16 04:02:57;;;;;;;23.77;15.07;;;7.20;99.90;;;;;;6210511;23;20174;-84
2022/01/16 04:05:24;;;;;;;30.97;16.10;;;7.20;99.90;;;;;;6209895;23;20173;-86
2022/01/16 04:07:51;;;;;;;24.90;16.00;;;7.20;99.90;;;;;;6210046;23;20185;-82
2022/01/16 04:10:18;;;;;;;26.07;15.10;;;7.30;99.90;;;;;;6210704;23;20181;-84
2022/01/16 04:12:46;;;;;;;21.67;14.20;;;7.30;99.90;;;;;;6208802;23;20205;-86
2022/01/16 04:18:00;;;;;;;27.23;14.23;;;7.30;99.90;;;;;;6210113;23;20221;-82
2022/01/16 04:20:27;;;;;;;23.27;14.30;;;7.30;99.90;;;;;;6210710;23;20185;-81
2022/01/16 04:22:54;;;;;;;26.17;14.17;;;7.30;99.90;;;;;;6209709;23;20198;-85
2022/01/16 04:25:21;;;;;;;22.00;14.33;;;7.40;99.90;;;;;;6209958;23;20177;-82
2022/01/16 04:27:48;;;;;;;24.50;13.53;;;7.40;99.90;;;;;;6208549;23;20174;-83
2022/01/16 04:30:15;;;;;;;26.17;14.13;;;7.40;99.90;;;;;;6207482;23;20170;-83
2022/01/16 04:32:42;;;;;;;23.87;14.27;;;7.40;99.90;;;;;;6209566;23;20174;-85
2022/01/16 04:35:11;;;;;;;22.50;14.07;;;7.40;99.90;;;;;;6209782;23;20177;-83
2022/01/16 04:37:38;;;;;;;26.70;13.70;;;7.50;99.90;;;;;;6209397;23;20174;-81
2022/01/16 04:40:06;;;;;;;27.37;13.27;;;7.50;99.90;;;;;;6210520;23;20208;-83
2022/01/16 04:45:17;;;;;;;28.20;13.87;;;7.50;99.90;;;;;;6208089;23;20181;-82
2022/01/16 04:47:44;;;;;;;22.40;12.93;;;7.50;99.90;;;;;;6206971;23;20174;-83
2022/01/16 04:50:14;;;;;;;22.93;13.43;;;7.60;99.90;;;;;;6210769;23;20181;-83
2022/01/16 04:52:42;;;;;;;19.23;12.77;;;7.60;99.90;;;;;;6211219;23;20194;-84
2022/01/16 04:55:10;;;;;;;22.83;12.67;;;7.60;99.90;;;;;;6211207;23;20202;-82
2022/01/16 04:57:38;;;;;;;21.17;12.03;;;7.60;99.90;;;;;;6209781;23;20174;-82
2022/01/16 05:00:08;;;;;;;24.60;12.10;;;7.60;99.90;;;;;;6211012;23;20185;-85
2022/01/16 05:02:35;;;;;;;22.43;12.03;;;7.60;99.90;;;;;;6209968;23;20194;-83
2022/01/16 05:05:02;;;;;;;25.67;11.13;;;7.60;99.90;;;;;;6209229;23;20193;-81
2022/01/16 05:07:30;;;;;;;20.77;11.27;;;7.60;99.90;;;;;;6209936;23;20597;-83
2022/01/16 05:09:57;;;;;;;20.43;12.00;;;7.60;99.90;;;;;;6210082;23;20185;-82
2022/01/16 05:12:30;;;;;;;19.80;11.27;;;7.70;99.90;;;;;;6208614;23;20201;-82
2022/01/16 05:17:40;;;;;;;15.40;10.10;;;7.70;99.90;;;;;;6208896;23;20232;-82
2022/01/16 05:20:08;;;;;;;19.00;9.90;;;7.70;99.90;;;;;;6209415;23;20182;-82
2022/01/16 05:22:37;;;;;;;19.87;10.90;;;7.60;99.90;;;;;;6208775;23;20215;-83
2022/01/16 05:25:05;;;;;;;19.70;10.77;;;7.60;99.90;;;;;;6209037;23;20567;-83
2022/01/16 05:27:31;;;;;;;20.30;10.23;;;7.60;99.90;;;;;;6208933;23;20174;-84
2022/01/16 05:29:58;;;;;;;19.13;9.77;;;7.70;99.90;;;;;;6210002;23;20784;-83
2022/01/16 05:32:25;;;;;;;16.50;9.70;;;7.70;99.90;;;;;;6208650;23;20204;-83
2022/01/16 05:34:51;;;;;;;17.47;8.97;;;7.70;99.90;;;;;;6209426;23;20905;-82
2022/01/16 05:37:18;;;;;;;20.67;9.07;;;7.70;99.90;;;;;;6209068;23;20526;-81
2022/01/16 05:39:49;;;;;;;19.03;9.43;;;7.70;99.90;;;;;;6208084;23;20174;-82
2022/01/16 05:42:15;;;;;;;18.10;9.53;;;7.70;99.90;;;;;;6208405;23;20463;-82
2022/01/16 05:44:42;;;;;;;18.07;9.70;;;7.70;99.90;;;;;;6209167;23;20170;-83
2022/01/16 05:47:12;;;;;;;18.97;9.40;;;7.70;99.90;;;;;;6208441;23;20170;-83
2022/01/16 05:49:40;;;;;;;20.63;8.50;;;7.80;99.90;;;;;;6207450;23;20224;-81
2022/01/16 05:52:07;;;;;;;12.50;7.27;;;7.80;99.90;;;;;;6208835;23;20247;-83
2022/01/16 05:54:34;;;;;;;14.27;7.90;;;7.80;99.90;;;;;;6207711;23;20208;-82
2022/01/16 05:57:03;;;;;;;16.83;5.73;;;7.80;99.90;;;;;;6205748;23;20638;-83
2022/01/16 05:59:30;;;;;;;16.20;6.40;;;7.80;99.90;;;;;;6206919;23;20170;-80
2022/01/16 06:01:56;;;;;;;12.30;5.37;;;7.80;99.90;;;;;;6208728;23;20194;-82
2022/01/16 06:04:23;;;;;;;14.03;5.43;;;7.80;99.90;;;;;;6207661;23;20170;-80
2022/01/16 06:06:50;;;;;;;10.23;4.53;;;7.80;99.90;;;;;;6207718;23;20178;-81
2022/01/16 06:09:17;;;;;;;11.53;4.07;;;7.90;99.90;;;;;;6206563;23;20173;-83
2022/01/16 06:11:43;;;;;;;13.33;4.70;;;7.90;99.90;;;;;;6206267;23;20700;-82
2022/01/16 06:14:12;;;;;;;10.00;4.00;;;8.00;99.90;;;;;;6208545;23;20170;-82
2022/01/16 06:16:38;;;;;;;11.57;4.13;;;8.00;99.90;;;;;;6206708;23;20174;-81
2022/01/16 06:19:05;;;;;;;10.67;4.40;;;8.00;99.90;;;;;;6205063;23;20181;-82
2022/01/16 06:21:32;;;;;;;10.20;3.50;;;8.00;99.90;;;;;;6205834;23;20206;-80
2022/01/16 06:23:59;;;;;;;8.73;3.70;;;8.00;99.90;;;;;;6207879;23;20174;-83
2022/01/16 06:26:26;;;;;;;7.23;3.30;;;8.10;99.90;;;;;;6206166;23;20170;-81
2022/01/16 06:28:52;;;;;;;8.43;3.57;;;8.10;99.90;;;;;;6207240;23;20174;-81
2022/01/16 06:31:20;;;;;;;7.80;2.90;;;8.20;99.90;;;;;;6207061;23;20170;-81
2022/01/16 06:33:47;;;;;;;11.60;3.50;;;8.20;99.90;;;;;;6207294;23;20174;-82
2022/01/16 06:36:14;;;;;;;13.07;3.33;;;8.20;99.90;;;;;;6206635;23;20174;-82
2022/01/16 06:38:41;;;;;;;11.17;3.70;;;8.20;99.90;;;;;;6181109;23;20174;-83
2022/01/16 06:41:08;;;;;;;11.07;3.70;;;8.20;99.90;;;;;;6206802;23;20170;-83
2022/01/16 06:43:34;;;;;;;7.53;2.93;;;8.20;99.90;;;;;;6206651;23;20209;-81
2022/01/16 06:46:01;;;;;;;7.13;2.50;;;8.20;99.90;;;;;;6207255;23;20170;-81
2022/01/16 06:48:30;;;;;;;6.73;2.80;;;8.20;99.90;;;;;;6208879;23;20408;-81
2022/01/16 06:50:57;;;;;;;9.13;3.20;;;8.20;99.90;;;;;;6208556;23;20485;-80
2022/01/16 06:53:24;;;;;;;7.87;3.53;;;8.20;99.90;;;;;;6209416;23;20190;-81
2022/01/16 06:55:50;;;;;;;5.63;3.83;;;8.20;99.90;;;;;;6209450;23;20440;-80
2022/01/16 06:58:17;;;;;;;10.67;3.20;;;8.30;99.90;;;;;;6209454;23;20172;-84
2022/01/16 07:00:44;;;;;;;5.53;3.63;;;8.30;99.90;;;;;;6208450;23;20197;-80
2022/01/16 07:03:12;;;;;;;10.23;3.53;;;8.30;99.90;;;;;;6209825;23;20194;-81
2022/01/16 07:05:40;;;;;;;9.53;3.73;;;8.30;99.90;;;;;;6208315;23;20178;-80
2022/01/16 07:08:07;;;;;;;8.70;3.87;;;8.30;99.90;;;;;;6207937;23;20182;-81
2022/01/16 07:10:34;;;;;;;13.17;4.00;;;8.30;99.90;;;;;;6207306;23;20166;-82
2022/01/16 07:13:00;;;;;;;11.43;4.03;;;8.30;99.90;;;;;;6208356;23;20213;-82
2022/01/16 07:15:27;;;;;;;11.33;5.40;;;8.30;99.90;;;;;;6209013;23;20177;-83
2022/01/16 07:17:54;;;;;;;11.07;4.73;;;8.40;99.90;;;;;;6207849;23;20189;-83
2022/01/16 07:20:21;;;;;;;9.47;4.43;;;8.40;99.90;;;;;;6208398;23;20209;-80
2022/01/16 07:22:49;;;;;;;6.87;5.03;;;8.40;99.90;;;;;;6208494;23;20197;-81
2022/01/16 07:25:15;;;;;;;10.37;4.93;;;8.30;99.90;;;;;;6205924;23;20170;-82
2022/01/16 07:27:42;;;;;;;15.03;5.10;;;8.40;99.90;;;;;;6208314;23;20181;-81
2022/01/16 07:30:10;;;;;;;7.93;4.50;;;8.40;99.90;;;;;;6208062;23;20173;-81
2022/01/16 07:32:37;;;;;;;10.00;4.93;;;8.40;99.90;;;;;;6207897;23;20174;-82
2022/01/16 07:35:05;;;;;;;9.13;4.17;;;8.40;99.90;;;;;;6207970;23;20563;-79
2022/01/16 07:37:32;;;;;;;11.33;4.10;;;8.40;99.90;;;;;;6208022;23;20261;-78
2022/01/16 07:40:00;;;;;;;9.90;4.47;;;8.50;99.90;;;;;;6208399;23;20174;-84
2022/01/16 07:42:27;;;;;;;11.33;3.80;;;8.50;99.90;;;;;;6207810;23;20189;-82
2022/01/16 07:44:54;;;;;;;9.97;3.80;;;8.50;99.90;;;;;;6208004;23;20170;-81
2022/01/16 07:47:20;;;;;;;8.30;4.10;;;8.50;99.90;;;;;;6206704;23;20554;-81
2022/01/16 07:49:47;;;;;;;9.57;4.40;;;8.50;99.90;;;;;;6207813;23;20556;-82
2022/01/16 07:52:14;;;;;;;11.93;4.67;;;8.50;99.90;;;;;;6206363;23;20194;-81
2022/01/16 07:54:41;;;;;;;14.47;4.47;;;8.50;99.90;;;;;;6208374;23;20579;-83
2022/01/16 07:57:09;;;;;;;12.70;5.40;;;8.50;99.90;;;;;;6209525;23;20187;-88
2022/01/16 07:59:36;;;;;;;13.07;5.10;;;8.50;99.90;;;;;;6210786;23;20177;-81
2022/01/16 08:02:03;;;;;;;14.43;6.60;;;8.50;99.90;;;;;;6210038;23;20247;-86
2022/01/16 08:04:30;;;;;;;11.20;5.33;;;8.50;99.90;;;;;;6211121;23;20634;-84
2022/01/16 08:07:07;;;;;;;12.30;5.97;;;8.50;99.90;;;;;;6187979;23;20762;-86
2022/01/16 08:09:33;;;;;;;15.67;5.87;;;8.50;99.90;;;;;;6210948;23;20204;-83
2022/01/16 08:12:00;;;;;;;12.73;6.37;;;8.50;99.90;;;;;;6210382;23;20206;-84
2022/01/16 08:14:28;;;;;;;9.87;6.20;;;8.40;99.90;;;;;;6209813;23;20173;-84
2022/01/16 08:16:56;;;;;;;10.73;6.00;;;8.50;99.90;;;;;;6211632;23;20493;-83
2022/01/16 08:19:23;;;;;;;15.27;6.27;;;8.50;99.90;;;;;;6210442;23;20978;-85
2022/01/16 08:21:56;;;;;;;12.50;6.20;;;8.50;99.90;;;;;;6205370;23;20252;-85
2022/01/16 08:24:27;;;;;;;13.17;6.13;;;8.50;99.90;;;;;;6211428;23;20170;-84
2022/01/16 08:26:54;;;;;;;12.60;6.37;;;8.40;99.90;;;;;;6210161;23;20544;-86
2022/01/16 08:29:21;;;;;;;14.27;6.43;;;8.50;99.90;;;;;;6211785;23;20170;-87
2022/01/16 08:31:49;;;;;;;16.97;8.07;;;8.50;99.90;;;;;;6212056;23;20184;-84
2022/01/16 08:34:15;;;;;;;15.20;6.33;;;8.50;99.90;;;;;;6211994;23;20170;-84
2022/01/16 08:36:42;;;;;;;13.67;6.53;;;8.50;99.90;;;;;;6212209;23;20170;-85
2022/01/16 08:39:09;;;;;;;12.97;6.73;;;8.40;99.90;;;;;;6211712;23;20408;-86
2022/01/16 08:41:37;;;;;;;15.80;7.30;;;8.40;99.90;;;;;;6212027;23;20178;-85
2022/01/16 08:44:05;;;;;;;17.30;7.77;;;8.30;99.90;;;;;;6185478;23;20194;-86
2022/01/16 08:46:32;;;;;;;16.40;7.17;;;8.40;99.90;;;;;;6212288;23;20181;-86
2022/01/16 08:49:00;;;;;;;13.43;7.30;;;8.40;99.90;;;;;;6211223;23;20424;-86
2022/01/16 08:51:28;;;;;;;11.70;6.43;;;8.40;99.90;;;;;;6210786;23;20285;-86
2022/01/16 08:53:57;;;;;;;13.47;7.07;;;8.30;99.90;;;;;;6208487;23;20217;-85
2022/01/16 08:56:24;;;;;;;16.20;8.20;;;8.30;99.90;;;;;;6210616;23;20174;-86
2022/01/16 08:58:51;;;;;;;15.10;7.20;;;8.30;99.90;;;;;;6211708;23;20181;-86
2022/01/16 09:01:17;;;;;;;18.93;7.47;;;8.30;99.90;;;;;;6211829;23;20185;-86
2022/01/16 09:03:44;;;;;;;16.27;8.40;;;8.20;99.90;;;;;;6211273;23;20198;-85
2022/01/16 09:06:12;;;;;;;17.60;7.40;;;8.30;99.90;;;;;;6211219;23;20169;-85
2022/01/16 09:08:39;;;;;;;16.10;7.83;;;8.30;99.90;;;;;;6210892;23;20176;-87
2022/01/16 09:11:07;;;;;;;15.73;7.37;;;8.20;99.90;;;;;;6209940;23;20170;-87
2022/01/16 09:13:34;;;;;;;19.33;7.70;;;8.30;99.90;;;;;;6210013;23;20202;-85
2022/01/16 09:16:01;;;;;;;13.57;7.17;;;8.30;99.90;;;;;;6211540;23;20570;-87
2022/01/16 09:18:28;;;;;;;16.83;7.73;;;8.30;99.90;;;;;;6211102;23;20895;-85
2022/01/16 09:20:56;;;;;;;17.67;7.23;;;8.30;99.90;;;;;;6211330;23;20178;-83
2022/01/16 09:23:25;;;;;;;20.37;7.80;;;8.30;99.90;;;;;;6209798;23;20280;-88
2022/01/16 09:25:51;;;;;;;16.50;8.20;;;8.30;99.90;;;;;;6206324;23;20583;-87
2022/01/16 09:28:18;;;;;;;12.80;7.37;;;8.30;99.90;;;;;;6212280;23;20441;-86
2022/01/16 09:30:45;;;;;;;14.90;7.07;;;8.30;99.90;;;;;;6212367;23;20178;-87
2022/01/16 09:33:12;;;;;;;17.23;7.67;;;8.30;99.90;;;;;;6211962;23;20170;-87
2022/01/16 09:35:39;;;;;;;15.47;7.70;;;8.30;99.90;;;;;;6212732;23;20185;-86
2022/01/16 09:38:07;;;;;;;13.10;6.60;;;8.30;99.90;;;;;;6213026;23;20757;-86
2022/01/16 09:40:36;;;;;;;15.23;6.73;;;8.40;99.90;;;;;;6211601;23;20273;-88
2022/01/16 09:43:04;;;;;;;14.77;6.83;;;8.30;99.90;;;;;;6212183;23;20499;-88
2022/01/16 09:45:31;;;;;;;11.93;7.10;;;8.30;99.90;;;;;;6210658;23;20802;-86
2022/01/16 09:47:58;;;;;;;15.50;6.93;;;8.30;99.90;;;;;;6212807;23;20174;-86
2022/01/16 09:50:27;;;;;;;18.87;6.53;;;8.30;99.90;;;;;;6212520;23;20174;-87
2022/01/16 09:52:54;;;;;;;18.93;7.63;;;8.40;99.90;;;;;;6212179;23;20190;-88
2022/01/16 09:55:23;;;;;;;13.37;6.27;;;8.40;99.90;;;;;;6213022;23;20178;-88
2022/01/16 09:57:51;;;;;;;11.87;5.83;;;8.40;99.90;;;;;;6212068;23;20583;-87
2022/01/16 10:00:21;;;;;;;14.10;5.63;;;8.50;99.90;;;;;;6211529;23;20178;-89
2022/01/16 10:02:49;;;;;;;13.37;6.33;;;8.50;99.90;;;;;;6212660;23;20236;-87
2022/01/16 10:05:24;;;;;;;16.00;5.73;;;8.60;99.90;;;;;;6212361;23;20182;-89
2022/01/16 10:07:51;;;;;;;14.77;5.60;;;8.60;99.90;;;;;;6211962;23;20174;-88
2022/01/16 10:10:20;;;;;;;12.30;5.30;;;8.60;99.90;;;;;;6211341;23;20222;-80
2022/01/16 10:12:51;;;;;;;14.23;5.20;;;8.60;99.90;;;;;;6209720;23;20205;-86
2022/01/16 10:15:22;;;;;;;16.67;6.60;;;8.70;99.90;;;;;;6210494;23;20170;-86
2022/01/16 10:17:51;;;;;;;15.43;6.17;;;8.70;99.90;;;;;;6210922;23;20543;-87
2022/01/16 10:20:19;;;;;;;15.43;6.03;;;8.60;99.90;;;;;;6207768;23;20178;-83
2022/01/16 10:22:47;;;;;;;15.27;5.93;;;8.60;99.90;;;;;;6208778;23;20221;-86
2022/01/16 10:25:15;;;;;;;13.33;6.10;;;8.60;99.90;;;;;;6212922;23;20568;-87
2022/01/16 10:27:44;;;;;;;10.13;5.07;;;8.60;99.90;;;;;;6212591;23;20177;-87
2022/01/16 10:30:14;;;;;;;14.97;5.40;;;8.70;99.90;;;;;;6212328;23;20170;-86
2022/01/16 10:32:43;;;;;;;10.63;4.97;;;8.70;99.90;;;;;;6212727;23;20490;-89
2022/01/16 10:35:14;;;;;;;9.90;4.77;;;8.70;99.90;;;;;;6211289;23;20162;-84
2022/01/16 10:37:43;;;;;;;9.33;4.90;;;8.80;99.90;;;;;;6211888;23;20457;-86
2022/01/16 10:40:14;;;;;;;13.73;5.47;;;8.70;99.90;;;;;;6212669;23;20178;-80
2022/01/16 10:42:42;;;;;;;9.03;5.07;;;8.70;99.90;;;;;;6210937;23;20166;-86
2022/01/16 10:45:10;;;;;;;10.70;5.40;;;8.70;99.90;;;;;;6212710;23;20177;-85
2022/01/16 10:47:40;;;;;;;11.57;5.50;;;8.70;99.90;;;;;;6211902;23;20185;-88
2022/01/16 10:50:13;;;;;;;8.80;5.10;;;8.70;99.90;;;;;;6211914;23;20166;-84
2022/01/16 10:52:58;;;;;;;9.17;5.10;;;8.80;99.90;;;;;;6211724;23;20193;-81
2022/01/16 10:55:34;;;;;;;19.00;5.07;;;8.80;99.90;;;;;;6212083;23;20170;-86
2022/01/16 10:58:06;;;;;;;15.23;4.60;;;8.90;99.90;;;;;;6207291;23;20188;-85
2022/01/16 11:00:33;;;;;;;14.13;5.77;;;8.90;99.90;;;;;;6211447;23;20166;-86
2022/01/16 11:03:02;;;;;;;13.60;5.30;;;8.90;99.90;;;;;;6210280;23;20194;-85
2022/01/16 11:05:34;;;;;;;10.10;5.03;;;8.90;99.90;;;;;;6210153;23;20170;-86
2022/01/16 11:08:04;;;;;;;8.70;4.70;;;8.90;99.90;;;;;;6212450;23;20651;-87
2022/01/16 11:10:32;;;;;;;9.53;5.27;;;8.90;99.90;;;;;;6212803;23;20181;-86
2022/01/16 11:13:01;;;;;;;11.67;5.10;;;9.00;99.90;;;;;;6212220;23;20205;-85
2022/01/16 11:15:29;;;;;;;17.80;5.43;;;8.90;99.90;;;;;;6212156;23;20210;-82
2022/01/16 11:17:56;;;;;;;11.10;5.27;;;8.90;99.90;;;;;;6211778;23;20178;-84
2022/01/16 11:20:29;;;;;;;14.23;6.03;;;8.90;99.90;;;;;;6211542;23;20174;-86
2022/01/16 11:23:01;;;;;;;13.57;7.20;;;9.00;99.90;;;;;;6210013;23;20205;-83
2022/01/16 11:25:34;;;;;;;14.67;6.37;;;9.00;99.90;;;;;;6207540;23;20166;-88
2022/01/16 11:28:07;;;;;;;12.10;6.80;;;9.00;99.90;;;;;;6209491;23;20171;-89
2022/01/16 11:30:36;;;;;;;11.90;6.00;;;9.10;99.90;;;;;;6212336;23;20166;-85
2022/01/16 11:33:03;;;;;;;15.93;6.43;;;9.10;99.90;;;;;;6215671;23;20166;-91
2022/01/16 11:35:32;;;;;;;9.47;5.20;;;9.10;99.90;;;;;;6213561;23;20166;-86
2022/01/16 11:38:01;;;;;;;9.87;5.20;;;9.20;99.90;;;;;;6210485;23;20178;-83
2022/01/16 11:40:38;;;;;;;10.90;5.77;;;9.20;99.90;;;;;;6210853;23;20177;-84
2022/01/16 11:43:29;;;;;;;11.53;5.17;;;9.30;99.90;;;;;;6210078;23;20178;-83
2022/01/16 11:46:09;;;;;;;11.47;5.40;;;9.30;99.90;;;;;;6190609;23;20178;-85
2022/01/16 11:48:42;;;;;;;15.53;5.80;;;9.30;99.90;;;;;;6209598;23;20174;-85
2022/01/16 11:51:48;;;;;;;10.87;5.00;;;9.30;99.90;;;;;;6209975;23;20166;-86
2022/01/16 11:54:22;;;;;;;18.10;5.90;;;9.30;99.90;;;;;;6210624;23;20245;-85
2022/01/16 11:56:51;;;;;;;13.47;5.23;;;9.40;99.90;;;;;;6211889;23;20166;-85
2022/01/16 11:59:21;;;;;;;11.97;5.93;;;9.40;99.90;;;;;;6210880;23;20178;-85
2022/01/16 12:01:49;;;;;;;13.30;6.03;;;9.40;99.90;;;;;;6211488;23;20170;-86
2022/01/16 12:04:48;;;;;;;9.50;5.73;;;9.50;99.90;;;;;;6210811;23;20205;-84
2022/01/16 12:07:47;;;;;;;20.43;7.00;;;9.50;99.90;;;;;;6210649;23;20197;-83
2022/01/16 12:10:46;;;;;;;10.53;5.47;;;9.40;99.90;;;;;;6185298;23;20236;-84
2022/01/16 12:13:44;;;;;;;14.63;6.13;;;9.40;99.90;;;;;;6210600;23;20198;-82
2022/01/16 12:16:38;;;;;;;11.97;6.40;;;9.50;99.90;;;;;;6210233;23;20848;-86
2022/01/16 12:19:45;;;;;;;12.87;6.60;;;9.50;99.90;;;;;;6210208;23;20551;-85
2022/01/16 12:22:15;;;;;;;11.27;6.00;;;9.50;99.90;;;;;;6209286;23;20174;-79
2022/01/16 12:24:44;;;;;;;14.50;5.97;;;9.60;99.90;;;;;;6210253;23;20197;-86
2022/01/16 12:27:46;;;;;;;13.20;6.03;;;9.60;99.90;;;;;;6209145;23;20177;-86
2022/01/16 12:30:35;;;;;;;16.53;6.40;;;9.60;99.90;;;;;;6207271;23;20577;-82
2022/01/16 12:33:08;;;;;;;11.83;6.57;;;9.60;99.90;;;;;;6208497;23;20845;-85
2022/01/16 12:36:16;;;;;;;11.83;6.60;;;9.50;99.90;;;;;;6210487;23;20205;-85
2022/01/16 12:39:11;;;;;;;12.43;5.70;;;9.50;99.90;;;;;;6209343;23;20728;-88
2022/01/16 12:41:41;;;;;;;13.77;6.83;;;9.60;99.90;;;;;;6125926;23;20240;-86
2022/01/16 12:44:11;;;;;;;13.27;5.90;;;9.50;99.90;;;;;;6210365;23;20256;-88
2022/01/16 12:46:41;;;;;;;13.23;6.57;;;9.60;99.90;;;;;;6209771;23;20832;-77
2022/01/16 12:49:11;;;;;;;17.13;6.40;;;9.60;99.90;;;;;;6208831;23;20184;-87
2022/01/16 12:51:41;;;;;;;13.17;6.40;;;9.60;99.90;;;;;;6209926;23;20198;-88
2022/01/16 12:54:11;;;;;;;20.17;8.10;;;9.60;99.90;;;;;;6210834;23;20174;-86
2022/01/16 12:56:40;;;;;;;15.63;7.10;;;9.60;99.90;;;;;;6209598;23;20559;-84
2022/01/16 12:59:12;;;;;;;16.03;7.30;;;9.60;99.90;;;;;;6209809;23;20230;-83
2022/01/16 13:01:44;;;;;;;16.23;7.60;;;9.50;99.90;;;;;;6208752;23;20605;-88
2022/01/16 13:04:27;;;;;;;18.10;8.03;;;9.60;99.90;;;;;;6210508;23;20186;-86
2022/01/16 13:06:56;;;;;;;13.90;8.13;;;9.60;99.90;;;;;;6211212;23;20166;-83
2022/01/16 13:09:23;;;;;;;15.10;7.50;;;9.60;99.90;;;;;;6210025;23;20180;-78
2022/01/16 13:11:53;;;;;;;17.27;7.93;;;9.50;99.90;;;;;;6210823;23;20224;-80
2022/01/16 13:14:25;;;;;;;19.17;8.07;;;9.60;99.90;;;;;;6209721;23;20558;-83
2022/01/16 13:16:53;;;;;;;18.13;8.63;;;9.50;99.90;;;;;;6208609;23;20433;-85
2022/01/16 13:19:22;;;;;;;19.47;9.27;;;9.60;99.90;;;;;;6209046;23;20177;-83
2022/01/16 13:22:07;;;;;;;22.53;8.53;;;9.50;99.90;;;;;;6210690;23;20178;-77
2022/01/16 13:24:40;;;;;;;14.60;8.10;;;9.50;99.90;;;;;;6210007;23;20255;-79
2022/01/16 13:27:10;;;;;;;17.23;7.90;;;9.50;99.90;;;;;;6210781;23;20265;-87
2022/01/16 13:29:40;;;;;;;20.50;8.37;;;9.50;99.90;;;;;;6210992;23;20170;-89
2022/01/16 13:32:09;;;;;;;18.40;7.70;;;9.50;99.90;;;;;;6211619;23;20170;-87
2022/01/16 13:34:48;;;;;;;17.83;7.70;;;9.60;99.90;;;;;;6210693;23;20180;-83
2022/01/16 13:37:22;;;;;;;17.87;8.10;;;9.60;99.90;;;;;;6211105;23;20173;-88